sensor_id;sensor_type;location;lat;lon;timestamp;P1;durP1;ratioP1;P2;durP2;ratioP2
41532;SDS011;27262;-35.248;149.138;2023-02-28T00:00:15;6.63;;;1.63;;
41532;SDS011;27262;-35.248;149.138;2023-02-28T00:02:46;3.55;;;1.42;;
41532;SDS011;27262;-35.248;149.138;2023-02-28T00:05:18;3.28;;;1.58;;
41532;SDS011;27262;-35.248;149.138;2023-02-28T00:07:53;1.83;;;1.30;;
41532;SDS011;27262;-35.248;149.138;2023-02-28T00:10:25;5.43;;;1.60;;
41532;SDS011;27262;-35.248;149.138;2023-02-28T00:13:02;1.92;;;1.33;;
41532;SDS011;27262;-35.248;149.138;2023-02-28T00:15:34;5.28;;;1.60;;
41532;SDS011;27262;-35.248;149.138;2023-02-28T00:18:04;2.42;;;1.50;;
41532;SDS011;27262;-35.248;149.138;2023-02-28T00:20:35;4.68;;;1.48;;
41532;SDS011;27262;-35.248;149.138;2023-02-28T00:23:05;5.55;;;1.50;;
41532;SDS011;27262;-35.248;149.138;2023-02-28T00:25:35;4.13;;;1.92;;
41532;SDS011;27262;-35.248;149.138;2023-02-28T00:28:06;4.03;;;1.50;;
41532;SDS011;27262;-35.248;149.138;2023-02-28T00:30:36;3.38;;;1.38;;
41532;SDS011;27262;-35.248;149.138;2023-02-28T00:33:06;3.38;;;1.08;;
41532;SDS011;27262;-35.248;149.138;2023-02-28T00:35:37;2.03;;;1.55;;
41532;SDS011;27262;-35.248;149.138;2023-02-28T00:38:07;5.15;;;1.50;;
41532;SDS011;27262;-35.248;149.138;2023-02-28T00:40:38;2.97;;;1.30;;
41532;SDS011;27262;-35.248;149.138;2023-02-28T00:43:08;2.88;;;1.30;;
41532;SDS011;27262;-35.248;149.138;2023-02-28T00:45:38;4.90;;;1.63;;
41532;SDS011;27262;-35.248;149.138;2023-02-28T00:48:09;1.85;;;1.20;;
41532;SDS011;27262;-35.248;149.138;2023-02-28T00:50:39;3.22;;;1.35;;
41532;SDS011;27262;-35.248;149.138;2023-02-28T00:53:09;3.17;;;1.30;;
41532;SDS011;27262;-35.248;149.138;2023-02-28T00:55:40;2.38;;;1.30;;
41532;SDS011;27262;-35.248;149.138;2023-02-28T00:58:10;2.58;;;1.70;;
41532;SDS011;27262;-35.248;149.138;2023-02-28T01:00:40;5.85;;;1.60;;
41532;SDS011;27262;-35.248;149.138;2023-02-28T01:03:10;7.57;;;1.40;;
41532;SDS011;27262;-35.248;149.138;2023-02-28T01:05:41;3.67;;;1.58;;
41532;SDS011;27262;-35.248;149.138;2023-02-28T01:08:11;3.53;;;1.20;;
41532;SDS011;27262;-35.248;149.138;2023-02-28T01:10:42;2.55;;;1.58;;
41532;SDS011;27262;-35.248;149.138;2023-02-28T01:13:13;3.20;;;1.27;;
41532;SDS011;27262;-35.248;149.138;2023-02-28T01:15:51;7.82;;;1.70;;
41532;SDS011;27262;-35.248;149.138;2023-02-28T01:18:24;1.98;;;1.45;;
41532;SDS011;27262;-35.248;149.138;2023-02-28T01:20:55;3.55;;;1.00;;
41532;SDS011;27262;-35.248;149.138;2023-02-28T01:23:25;2.90;;;1.38;;
41532;SDS011;27262;-35.248;149.138;2023-02-28T01:25:55;3.58;;;1.40;;
41532;SDS011;27262;-35.248;149.138;2023-02-28T01:28:26;4.80;;;1.20;;
41532;SDS011;27262;-35.248;149.138;2023-02-28T01:30:58;4.78;;;1.30;;
41532;SDS011;27262;-35.248;149.138;2023-02-28T01:33:28;1.80;;;1.33;;
41532;SDS011;27262;-35.248;149.138;2023-02-28T01:36:06;2.47;;;1.20;;
41532;SDS011;27262;-35.248;149.138;2023-02-28T01:38:41;3.05;;;1.40;;
41532;SDS011;27262;-35.248;149.138;2023-02-28T01:41:16;2.35;;;1.40;;
41532;SDS011;27262;-35.248;149.138;2023-02-28T01:43:56;3.72;;;1.55;;
41532;SDS011;27262;-35.248;149.138;2023-02-28T01:46:47;3.10;;;1.30;;
41532;SDS011;27262;-35.248;149.138;2023-02-28T01:49:18;4.68;;;1.63;;
41532;SDS011;27262;-35.248;149.138;2023-02-28T01:51:49;5.18;;;1.30;;
41532;SDS011;27262;-35.248;149.138;2023-02-28T01:54:25;2.72;;;1.50;;
41532;SDS011;27262;-35.248;149.138;2023-02-28T01:57:09;2.13;;;1.40;;
41532;SDS011;27262;-35.248;149.138;2023-02-28T01:59:46;2.45;;;1.25;;
41532;SDS011;27262;-35.248;149.138;2023-02-28T02:02:27;2.05;;;1.13;;
41532;SDS011;27262;-35.248;149.138;2023-02-28T02:05:01;1.77;;;1.42;;
41532;SDS011;27262;-35.248;149.138;2023-02-28T02:07:42;4.00;;;1.50;;
41532;SDS011;27262;-35.248;149.138;2023-02-28T02:10:27;1.75;;;1.17;;
41532;SDS011;27262;-35.248;149.138;2023-02-28T02:16:00;2.55;;;1.40;;
41532;SDS011;27262;-35.248;149.138;2023-02-28T02:35:08;3.88;;;1.48;;
41532;SDS011;27262;-35.248;149.138;2023-02-28T02:41:02;1.52;;;1.20;;
41532;SDS011;27262;-35.248;149.138;2023-02-28T02:46:17;1.60;;;1.20;;
41532;SDS011;27262;-35.248;149.138;2023-02-28T02:48:51;1.35;;;1.10;;
41532;SDS011;27262;-35.248;149.138;2023-02-28T02:51:24;1.35;;;1.10;;
41532;SDS011;27262;-35.248;149.138;2023-02-28T02:56:32;3.92;;;1.52;;
41532;SDS011;27262;-35.248;149.138;2023-02-28T02:59:07;1.92;;;1.60;;
41532;SDS011;27262;-35.248;149.138;2023-02-28T03:01:42;3.53;;;1.30;;
41532;SDS011;27262;-35.248;149.138;2023-02-28T03:04:13;4.20;;;1.33;;
41532;SDS011;27262;-35.248;149.138;2023-02-28T03:06:49;3.92;;;1.23;;
41532;SDS011;27262;-35.248;149.138;2023-02-28T03:09:24;2.58;;;1.02;;
41532;SDS011;27262;-35.248;149.138;2023-02-28T03:11:55;3.40;;;1.27;;
41532;SDS011;27262;-35.248;149.138;2023-02-28T03:26:02;2.85;;;1.30;;
41532;SDS011;27262;-35.248;149.138;2023-02-28T03:28:55;1.40;;;1.08;;
41532;SDS011;27262;-35.248;149.138;2023-02-28T03:31:49;2.42;;;1.30;;
41532;SDS011;27262;-35.248;149.138;2023-02-28T03:34:34;2.45;;;1.38;;
41532;SDS011;27262;-35.248;149.138;2023-02-28T03:37:10;2.70;;;1.35;;
41532;SDS011;27262;-35.248;149.138;2023-02-28T03:39:56;1.02;;;1.00;;
41532;SDS011;27262;-35.248;149.138;2023-02-28T03:42:31;4.43;;;1.27;;
41532;SDS011;27262;-35.248;149.138;2023-02-28T03:45:08;3.13;;;1.38;;
41532;SDS011;27262;-35.248;149.138;2023-02-28T03:50:41;2.67;;;1.30;;
41532;SDS011;27262;-35.248;149.138;2023-02-28T03:53:16;1.42;;;1.10;;
41532;SDS011;27262;-35.248;149.138;2023-02-28T03:55:57;1.48;;;1.15;;
41532;SDS011;27262;-35.248;149.138;2023-02-28T03:58:55;2.60;;;1.48;;
41532;SDS011;27262;-35.248;149.138;2023-02-28T04:01:38;3.30;;;1.30;;
41532;SDS011;27262;-35.248;149.138;2023-02-28T04:04:16;1.95;;;1.13;;
41532;SDS011;27262;-35.248;149.138;2023-02-28T04:06:49;3.65;;;1.27;;
41532;SDS011;27262;-35.248;149.138;2023-02-28T04:09:20;1.98;;;1.30;;
41532;SDS011;27262;-35.248;149.138;2023-02-28T04:11:51;1.67;;;1.30;;
41532;SDS011;27262;-35.248;149.138;2023-02-28T04:14:24;1.83;;;1.10;;
41532;SDS011;27262;-35.248;149.138;2023-02-28T04:16:55;2.20;;;1.10;;
41532;SDS011;27262;-35.248;149.138;2023-02-28T04:19:25;2.35;;;1.30;;
41532;SDS011;27262;-35.248;149.138;2023-02-28T04:21:55;1.48;;;1.20;;
41532;SDS011;27262;-35.248;149.138;2023-02-28T04:24:27;2.42;;;1.20;;
41532;SDS011;27262;-35.248;149.138;2023-02-28T04:26:58;1.05;;;1.00;;
41532;SDS011;27262;-35.248;149.138;2023-02-28T04:29:29;3.55;;;1.08;;
41532;SDS011;27262;-35.248;149.138;2023-02-28T04:32:01;1.95;;;1.33;;
41532;SDS011;27262;-35.248;149.138;2023-02-28T04:34:32;1.90;;;0.95;;
41532;SDS011;27262;-35.248;149.138;2023-02-28T04:37:03;4.47;;;1.27;;
41532;SDS011;27262;-35.248;149.138;2023-02-28T04:39:40;3.92;;;1.20;;
41532;SDS011;27262;-35.248;149.138;2023-02-28T04:42:11;3.00;;;1.23;;
41532;SDS011;27262;-35.248;149.138;2023-02-28T04:44:42;2.88;;;1.15;;
41532;SDS011;27262;-35.248;149.138;2023-02-28T04:47:12;3.67;;;1.35;;
41532;SDS011;27262;-35.248;149.138;2023-02-28T04:49:43;2.78;;;1.02;;
41532;SDS011;27262;-35.248;149.138;2023-02-28T04:52:13;2.72;;;1.08;;
41532;SDS011;27262;-35.248;149.138;2023-02-28T04:54:43;1.15;;;1.00;;
41532;SDS011;27262;-35.248;149.138;2023-02-28T04:57:13;2.70;;;1.40;;
41532;SDS011;27262;-35.248;149.138;2023-02-28T04:59:43;2.85;;;0.98;;
41532;SDS011;27262;-35.248;149.138;2023-02-28T05:02:14;2.13;;;1.17;;
41532;SDS011;27262;-35.248;149.138;2023-02-28T05:04:44;2.42;;;1.23;;
41532;SDS011;27262;-35.248;149.138;2023-02-28T05:07:15;3.72;;;1.33;;
41532;SDS011;27262;-35.248;149.138;2023-02-28T05:09:45;4.15;;;1.27;;
41532;SDS011;27262;-35.248;149.138;2023-02-28T05:12:15;5.13;;;1.35;;
41532;SDS011;27262;-35.248;149.138;2023-02-28T05:14:45;3.50;;;1.30;;
41532;SDS011;27262;-35.248;149.138;2023-02-28T05:17:16;2.55;;;1.33;;
41532;SDS011;27262;-35.248;149.138;2023-02-28T05:19:46;2.50;;;1.33;;
41532;SDS011;27262;-35.248;149.138;2023-02-28T05:22:16;1.48;;;1.15;;
41532;SDS011;27262;-35.248;149.138;2023-02-28T05:24:46;2.25;;;1.45;;
41532;SDS011;27262;-35.248;149.138;2023-02-28T05:27:17;2.95;;;1.70;;
41532;SDS011;27262;-35.248;149.138;2023-02-28T05:29:47;1.52;;;1.40;;
41532;SDS011;27262;-35.248;149.138;2023-02-28T05:32:18;3.08;;;1.42;;
41532;SDS011;27262;-35.248;149.138;2023-02-28T05:34:48;2.60;;;1.10;;
41532;SDS011;27262;-35.248;149.138;2023-02-28T05:37:18;4.72;;;1.60;;
41532;SDS011;27262;-35.248;149.138;2023-02-28T05:39:49;2.40;;;1.30;;
41532;SDS011;27262;-35.248;149.138;2023-02-28T05:42:19;2.78;;;1.63;;
41532;SDS011;27262;-35.248;149.138;2023-02-28T05:44:49;4.55;;;1.48;;
41532;SDS011;27262;-35.248;149.138;2023-02-28T05:47:20;2.65;;;1.30;;
41532;SDS011;27262;-35.248;149.138;2023-02-28T05:49:51;7.65;;;1.50;;
41532;SDS011;27262;-35.248;149.138;2023-02-28T05:52:21;4.82;;;1.58;;
41532;SDS011;27262;-35.248;149.138;2023-02-28T05:54:51;1.58;;;1.48;;
41532;SDS011;27262;-35.248;149.138;2023-02-28T05:57:22;4.30;;;1.60;;
41532;SDS011;27262;-35.248;149.138;2023-02-28T05:59:53;1.60;;;1.50;;
41532;SDS011;27262;-35.248;149.138;2023-02-28T06:02:23;1.60;;;1.40;;
41532;SDS011;27262;-35.248;149.138;2023-02-28T06:04:54;7.10;;;1.42;;
41532;SDS011;27262;-35.248;149.138;2023-02-28T06:07:24;2.50;;;1.50;;
41532;SDS011;27262;-35.248;149.138;2023-02-28T06:09:55;3.88;;;1.92;;
41532;SDS011;27262;-35.248;149.138;2023-02-28T06:12:25;2.13;;;1.83;;
41532;SDS011;27262;-35.248;149.138;2023-02-28T06:14:55;2.13;;;1.60;;
41532;SDS011;27262;-35.248;149.138;2023-02-28T06:17:25;3.50;;;2.25;;
41532;SDS011;27262;-35.248;149.138;2023-02-28T06:19:56;1.42;;;1.17;;
41532;SDS011;27262;-35.248;149.138;2023-02-28T06:22:26;1.50;;;1.40;;
41532;SDS011;27262;-35.248;149.138;2023-02-28T06:24:57;4.35;;;1.85;;
41532;SDS011;27262;-35.248;149.138;2023-02-28T06:27:27;1.88;;;1.65;;
41532;SDS011;27262;-35.248;149.138;2023-02-28T06:29:58;1.73;;;1.30;;
41532;SDS011;27262;-35.248;149.138;2023-02-28T06:32:28;2.22;;;1.38;;
41532;SDS011;27262;-35.248;149.138;2023-02-28T06:34:59;3.67;;;1.42;;
41532;SDS011;27262;-35.248;149.138;2023-02-28T06:37:30;3.15;;;1.88;;
41532;SDS011;27262;-35.248;149.138;2023-02-28T06:40:01;3.15;;;1.50;;
41532;SDS011;27262;-35.248;149.138;2023-02-28T06:42:31;2.90;;;1.30;;
41532;SDS011;27262;-35.248;149.138;2023-02-28T06:45:02;3.92;;;1.60;;
41532;SDS011;27262;-35.248;149.138;2023-02-28T06:47:38;2.20;;;1.65;;
41532;SDS011;27262;-35.248;149.138;2023-02-28T06:50:10;4.82;;;1.50;;
41532;SDS011;27262;-35.248;149.138;2023-02-28T06:52:41;1.67;;;1.58;;
41532;SDS011;27262;-35.248;149.138;2023-02-28T06:55:11;2.00;;;1.65;;
41532;SDS011;27262;-35.248;149.138;2023-02-28T06:57:42;4.90;;;1.80;;
41532;SDS011;27262;-35.248;149.138;2023-02-28T07:00:13;3.75;;;1.70;;
41532;SDS011;27262;-35.248;149.138;2023-02-28T07:02:43;3.88;;;1.75;;
41532;SDS011;27262;-35.248;149.138;2023-02-28T07:05:14;2.40;;;1.55;;
41532;SDS011;27262;-35.248;149.138;2023-02-28T07:07:44;2.30;;;1.75;;
41532;SDS011;27262;-35.248;149.138;2023-02-28T07:10:15;3.97;;;1.73;;
41532;SDS011;27262;-35.248;149.138;2023-02-28T07:12:46;3.08;;;1.80;;
41532;SDS011;27262;-35.248;149.138;2023-02-28T07:15:16;3.15;;;1.60;;
41532;SDS011;27262;-35.248;149.138;2023-02-28T07:17:47;1.42;;;1.33;;
41532;SDS011;27262;-35.248;149.138;2023-02-28T07:20:17;2.67;;;1.90;;
41532;SDS011;27262;-35.248;149.138;2023-02-28T07:22:47;3.38;;;1.75;;
41532;SDS011;27262;-35.248;149.138;2023-02-28T07:25:24;2.55;;;1.70;;
41532;SDS011;27262;-35.248;149.138;2023-02-28T07:27:55;4.68;;;1.83;;
41532;SDS011;27262;-35.248;149.138;2023-02-28T07:30:27;2.55;;;1.63;;
41532;SDS011;27262;-35.248;149.138;2023-02-28T07:32:57;2.08;;;1.88;;
41532;SDS011;27262;-35.248;149.138;2023-02-28T07:35:28;2.47;;;1.88;;
41532;SDS011;27262;-35.248;149.138;2023-02-28T07:37:59;2.05;;;1.75;;
41532;SDS011;27262;-35.248;149.138;2023-02-28T07:40:30;4.88;;;1.45;;
41532;SDS011;27262;-35.248;149.138;2023-02-28T07:43:00;1.55;;;1.45;;
41532;SDS011;27262;-35.248;149.138;2023-02-28T07:45:31;2.28;;;1.60;;
41532;SDS011;27262;-35.248;149.138;2023-02-28T07:48:02;2.38;;;1.73;;
41532;SDS011;27262;-35.248;149.138;2023-02-28T07:50:33;2.58;;;1.95;;
41532;SDS011;27262;-35.248;149.138;2023-02-28T07:53:03;3.80;;;2.17;;
41532;SDS011;27262;-35.248;149.138;2023-02-28T07:55:33;3.85;;;1.90;;
41532;SDS011;27262;-35.248;149.138;2023-02-28T07:58:04;2.70;;;1.65;;
41532;SDS011;27262;-35.248;149.138;2023-02-28T08:00:34;4.97;;;1.92;;
41532;SDS011;27262;-35.248;149.138;2023-02-28T08:03:04;3.65;;;1.70;;
41532;SDS011;27262;-35.248;149.138;2023-02-28T08:05:37;4.38;;;2.22;;
41532;SDS011;27262;-35.248;149.138;2023-02-28T08:08:10;5.57;;;2.10;;
41532;SDS011;27262;-35.248;149.138;2023-02-28T08:10:41;3.20;;;2.03;;
41532;SDS011;27262;-35.248;149.138;2023-02-28T08:13:11;2.55;;;2.10;;
41532;SDS011;27262;-35.248;149.138;2023-02-28T08:15:42;2.53;;;1.77;;
41532;SDS011;27262;-35.248;149.138;2023-02-28T08:18:14;6.35;;;2.30;;
41532;SDS011;27262;-35.248;149.138;2023-02-28T08:20:44;2.25;;;1.80;;
41532;SDS011;27262;-35.248;149.138;2023-02-28T08:23:14;2.20;;;1.60;;
41532;SDS011;27262;-35.248;149.138;2023-02-28T08:25:45;4.18;;;1.95;;
41532;SDS011;27262;-35.248;149.138;2023-02-28T08:28:23;2.22;;;2.03;;
41532;SDS011;27262;-35.248;149.138;2023-02-28T08:30:54;4.82;;;2.22;;
41532;SDS011;27262;-35.248;149.138;2023-02-28T08:33:24;2.75;;;1.70;;
41532;SDS011;27262;-35.248;149.138;2023-02-28T08:35:56;4.15;;;1.98;;
41532;SDS011;27262;-35.248;149.138;2023-02-28T08:38:26;2.42;;;1.92;;
41532;SDS011;27262;-35.248;149.138;2023-02-28T08:40:57;3.60;;;1.80;;
41532;SDS011;27262;-35.248;149.138;2023-02-28T08:43:29;1.80;;;1.70;;
41532;SDS011;27262;-35.248;149.138;2023-02-28T08:45:59;3.05;;;1.67;;
41532;SDS011;27262;-35.248;149.138;2023-02-28T08:48:30;2.47;;;1.92;;
41532;SDS011;27262;-35.248;149.138;2023-02-28T08:51:05;2.13;;;1.75;;
41532;SDS011;27262;-35.248;149.138;2023-02-28T08:53:57;3.60;;;1.67;;
41532;SDS011;27262;-35.248;149.138;2023-02-28T08:56:29;3.03;;;1.55;;
41532;SDS011;27262;-35.248;149.138;2023-02-28T08:58:59;2.53;;;1.50;;
41532;SDS011;27262;-35.248;149.138;2023-02-28T09:01:30;2.67;;;1.33;;
41532;SDS011;27262;-35.248;149.138;2023-02-28T09:04:01;2.60;;;1.45;;
41532;SDS011;27262;-35.248;149.138;2023-02-28T09:06:32;2.33;;;1.73;;
41532;SDS011;27262;-35.248;149.138;2023-02-28T09:09:03;3.13;;;1.70;;
41532;SDS011;27262;-35.248;149.138;2023-02-28T09:11:35;1.85;;;1.75;;
41532;SDS011;27262;-35.248;149.138;2023-02-28T09:14:06;1.73;;;1.63;;
41532;SDS011;27262;-35.248;149.138;2023-02-28T09:16:36;5.68;;;1.85;;
41532;SDS011;27262;-35.248;149.138;2023-02-28T09:19:09;2.85;;;1.75;;
41532;SDS011;27262;-35.248;149.138;2023-02-28T09:21:40;2.10;;;1.67;;
41532;SDS011;27262;-35.248;149.138;2023-02-28T09:24:11;2.67;;;1.90;;
41532;SDS011;27262;-35.248;149.138;2023-02-28T09:26:43;2.20;;;1.60;;
41532;SDS011;27262;-35.248;149.138;2023-02-28T09:29:31;2.63;;;1.63;;
41532;SDS011;27262;-35.248;149.138;2023-02-28T09:32:02;2.55;;;2.13;;
41532;SDS011;27262;-35.248;149.138;2023-02-28T09:34:34;1.67;;;1.58;;
41532;SDS011;27262;-35.248;149.138;2023-02-28T09:37:06;1.90;;;1.50;;
41532;SDS011;27262;-35.248;149.138;2023-02-28T09:39:36;3.80;;;1.80;;
41532;SDS011;27262;-35.248;149.138;2023-02-28T09:42:11;4.18;;;2.08;;
41532;SDS011;27262;-35.248;149.138;2023-02-28T09:44:50;3.78;;;2.17;;
41532;SDS011;27262;-35.248;149.138;2023-02-28T09:52:45;4.93;;;2.33;;
41532;SDS011;27262;-35.248;149.138;2023-02-28T09:55:29;2.28;;;1.88;;
41532;SDS011;27262;-35.248;149.138;2023-02-28T09:58:17;6.47;;;2.38;;
41532;SDS011;27262;-35.248;149.138;2023-02-28T10:01:00;1.98;;;1.83;;
41532;SDS011;27262;-35.248;149.138;2023-02-28T10:09:02;2.95;;;2.35;;
41532;SDS011;27262;-35.248;149.138;2023-02-28T10:11:38;4.20;;;2.22;;
41532;SDS011;27262;-35.248;149.138;2023-02-28T10:16:52;2.85;;;2.15;;
41532;SDS011;27262;-35.248;149.138;2023-02-28T10:19:57;2.67;;;2.10;;
41532;SDS011;27262;-35.248;149.138;2023-02-28T10:25:40;6.22;;;2.00;;
41532;SDS011;27262;-35.248;149.138;2023-02-28T10:28:16;3.85;;;1.98;;
41532;SDS011;27262;-35.248;149.138;2023-02-28T10:30:51;4.03;;;2.13;;
41532;SDS011;27262;-35.248;149.138;2023-02-28T10:33:24;2.78;;;1.80;;
41532;SDS011;27262;-35.248;149.138;2023-02-28T10:35:59;2.67;;;1.98;;
41532;SDS011;27262;-35.248;149.138;2023-02-28T10:38:35;4.68;;;1.90;;
41532;SDS011;27262;-35.248;149.138;2023-02-28T10:41:11;2.72;;;1.80;;
41532;SDS011;27262;-35.248;149.138;2023-02-28T10:44:25;2.30;;;1.98;;
41532;SDS011;27262;-35.248;149.138;2023-02-28T10:46:55;3.08;;;2.38;;
41532;SDS011;27262;-35.248;149.138;2023-02-28T10:49:26;6.07;;;2.20;;
41532;SDS011;27262;-35.248;149.138;2023-02-28T10:51:59;2.95;;;2.42;;
41532;SDS011;27262;-35.248;149.138;2023-02-28T10:54:34;2.88;;;1.98;;
41532;SDS011;27262;-35.248;149.138;2023-02-28T10:57:20;5.32;;;2.10;;
41532;SDS011;27262;-35.248;149.138;2023-02-28T11:00:06;2.03;;;1.80;;
41532;SDS011;27262;-35.248;149.138;2023-02-28T11:02:50;5.07;;;2.28;;
41532;SDS011;27262;-35.248;149.138;2023-02-28T11:05:28;3.45;;;1.98;;
41532;SDS011;27262;-35.248;149.138;2023-02-28T11:10:54;3.20;;;2.20;;
41532;SDS011;27262;-35.248;149.138;2023-02-28T11:13:29;3.72;;;2.30;;
41532;SDS011;27262;-35.248;149.138;2023-02-28T11:16:10;5.25;;;2.30;;
41532;SDS011;27262;-35.248;149.138;2023-02-28T11:18:43;3.65;;;2.35;;
41532;SDS011;27262;-35.248;149.138;2023-02-28T11:21:26;2.38;;;2.17;;
41532;SDS011;27262;-35.248;149.138;2023-02-28T11:24:02;6.03;;;1.98;;
41532;SDS011;27262;-35.248;149.138;2023-02-28T11:26:48;3.08;;;2.17;;
41532;SDS011;27262;-35.248;149.138;2023-02-28T11:29:20;2.08;;;1.88;;
41532;SDS011;27262;-35.248;149.138;2023-02-28T11:32:02;3.17;;;2.15;;
41532;SDS011;27262;-35.248;149.138;2023-02-28T11:35:32;2.38;;;1.85;;
41532;SDS011;27262;-35.248;149.138;2023-02-28T11:37:52;4.88;;;2.22;;
41532;SDS011;27262;-35.248;149.138;2023-02-28T11:40:36;5.50;;;2.13;;
41532;SDS011;27262;-35.248;149.138;2023-02-28T11:53:21;5.20;;;2.10;;
41532;SDS011;27262;-35.248;149.138;2023-02-28T11:55:25;2.38;;;2.10;;
41532;SDS011;27262;-35.248;149.138;2023-02-28T12:04:16;2.80;;;2.30;;
41532;SDS011;27262;-35.248;149.138;2023-02-28T12:12:44;2.60;;;2.30;;
41532;SDS011;27262;-35.248;149.138;2023-02-28T12:24:20;3.25;;;2.35;;
41532;SDS011;27262;-35.248;149.138;2023-02-28T12:27:13;3.90;;;2.33;;
41532;SDS011;27262;-35.248;149.138;2023-02-28T12:32:34;2.40;;;1.75;;
41532;SDS011;27262;-35.248;149.138;2023-02-28T12:35:19;3.60;;;2.05;;
41532;SDS011;27262;-35.248;149.138;2023-02-28T12:40:56;2.45;;;2.08;;
41532;SDS011;27262;-35.248;149.138;2023-02-28T12:43:46;4.45;;;2.08;;
41532;SDS011;27262;-35.248;149.138;2023-02-28T12:46:44;4.72;;;2.50;;
41532;SDS011;27262;-35.248;149.138;2023-02-28T12:52:07;2.22;;;2.13;;
41532;SDS011;27262;-35.248;149.138;2023-02-28T12:54:50;2.53;;;2.03;;
41532;SDS011;27262;-35.248;149.138;2023-02-28T13:00:10;2.08;;;1.92;;
41532;SDS011;27262;-35.248;149.138;2023-02-28T13:02:56;3.38;;;2.30;;
41532;SDS011;27262;-35.248;149.138;2023-02-28T13:11:47;2.97;;;2.50;;
41532;SDS011;27262;-35.248;149.138;2023-02-28T13:14:29;2.55;;;2.35;;
41532;SDS011;27262;-35.248;149.138;2023-02-28T13:22:17;3.30;;;2.20;;
41532;SDS011;27262;-35.248;149.138;2023-02-28T13:27:52;2.47;;;2.10;;
41532;SDS011;27262;-35.248;149.138;2023-02-28T13:38:44;3.22;;;2.20;;
41532;SDS011;27262;-35.248;149.138;2023-02-28T13:47:13;4.20;;;2.33;;
41532;SDS011;27262;-35.248;149.138;2023-02-28T13:49:27;3.83;;;2.30;;
41532;SDS011;27262;-35.248;149.138;2023-02-28T13:54:51;2.95;;;2.75;;
41532;SDS011;27262;-35.248;149.138;2023-02-28T13:58:01;2.38;;;2.15;;
41532;SDS011;27262;-35.248;149.138;2023-02-28T14:00:52;2.92;;;2.53;;
41532;SDS011;27262;-35.248;149.138;2023-02-28T14:06:27;2.88;;;2.53;;
41532;SDS011;27262;-35.248;149.138;2023-02-28T14:11:56;3.53;;;2.40;;
41532;SDS011;27262;-35.248;149.138;2023-02-28T14:17:17;4.10;;;2.78;;
41532;SDS011;27262;-35.248;149.138;2023-02-28T14:19:48;2.63;;;2.42;;
41532;SDS011;27262;-35.248;149.138;2023-02-28T14:31:29;3.25;;;2.70;;
41532;SDS011;27262;-35.248;149.138;2023-02-28T14:36:58;2.65;;;2.42;;
41532;SDS011;27262;-35.248;149.138;2023-02-28T14:39:31;4.30;;;2.53;;
41532;SDS011;27262;-35.248;149.138;2023-02-28T14:42:03;3.08;;;2.78;;
41532;SDS011;27262;-35.248;149.138;2023-02-28T14:44:56;3.25;;;2.63;;
41532;SDS011;27262;-35.248;149.138;2023-02-28T14:47:33;3.47;;;2.78;;
41532;SDS011;27262;-35.248;149.138;2023-02-28T14:50:18;4.78;;;2.33;;
41532;SDS011;27262;-35.248;149.138;2023-02-28T14:52:53;2.42;;;2.22;;
41532;SDS011;27262;-35.248;149.138;2023-02-28T14:55:31;4.53;;;3.00;;
41532;SDS011;27262;-35.248;149.138;2023-02-28T14:58:06;3.33;;;2.60;;
41532;SDS011;27262;-35.248;149.138;2023-02-28T15:00:51;2.92;;;2.50;;
41532;SDS011;27262;-35.248;149.138;2023-02-28T15:03:27;3.00;;;2.67;;
41532;SDS011;27262;-35.248;149.138;2023-02-28T15:06:18;2.85;;;2.35;;
41532;SDS011;27262;-35.248;149.138;2023-02-28T15:09:05;3.67;;;3.00;;
41532;SDS011;27262;-35.248;149.138;2023-02-28T15:11:50;2.38;;;2.17;;
41532;SDS011;27262;-35.248;149.138;2023-02-28T15:14:33;3.25;;;2.60;;
41532;SDS011;27262;-35.248;149.138;2023-02-28T15:17:20;3.80;;;2.60;;
41532;SDS011;27262;-35.248;149.138;2023-02-28T15:19:55;4.05;;;2.80;;
41532;SDS011;27262;-35.248;149.138;2023-02-28T15:22:33;4.72;;;2.90;;
41532;SDS011;27262;-35.248;149.138;2023-02-28T15:25:06;3.95;;;2.50;;
41532;SDS011;27262;-35.248;149.138;2023-02-28T15:27:44;3.70;;;2.70;;
41532;SDS011;27262;-35.248;149.138;2023-02-28T15:30:24;2.78;;;2.58;;
41532;SDS011;27262;-35.248;149.138;2023-02-28T15:33:06;3.90;;;2.50;;
41532;SDS011;27262;-35.248;149.138;2023-02-28T15:35:44;3.25;;;2.90;;
41532;SDS011;27262;-35.248;149.138;2023-02-28T15:38:26;3.35;;;3.00;;
41532;SDS011;27262;-35.248;149.138;2023-02-28T15:41:00;3.00;;;2.70;;
41532;SDS011;27262;-35.248;149.138;2023-02-28T15:43:33;3.22;;;2.92;;
41532;SDS011;27262;-35.248;149.138;2023-02-28T15:46:09;3.47;;;2.53;;
41532;SDS011;27262;-35.248;149.138;2023-02-28T15:51:34;3.00;;;2.70;;
41532;SDS011;27262;-35.248;149.138;2023-02-28T15:54:15;4.68;;;2.97;;
41532;SDS011;27262;-35.248;149.138;2023-02-28T15:56:51;3.70;;;2.90;;
41532;SDS011;27262;-35.248;149.138;2023-02-28T15:59:29;3.85;;;2.83;;
41532;SDS011;27262;-35.248;149.138;2023-02-28T16:07:47;2.75;;;2.47;;
41532;SDS011;27262;-35.248;149.138;2023-02-28T16:10:18;2.60;;;2.40;;
41532;SDS011;27262;-35.248;149.138;2023-02-28T16:12:55;4.05;;;3.00;;
41532;SDS011;27262;-35.248;149.138;2023-02-28T16:15:27;2.90;;;2.50;;
41532;SDS011;27262;-35.248;149.138;2023-02-28T16:18:11;2.67;;;2.47;;
41532;SDS011;27262;-35.248;149.138;2023-02-28T16:20:42;3.15;;;2.85;;
41532;SDS011;27262;-35.248;149.138;2023-02-28T16:23:13;3.65;;;2.35;;
41532;SDS011;27262;-35.248;149.138;2023-02-28T16:25:44;3.33;;;2.90;;
41532;SDS011;27262;-35.248;149.138;2023-02-28T16:28:21;2.60;;;2.28;;
41532;SDS011;27262;-35.248;149.138;2023-02-28T16:31:01;3.80;;;2.60;;
41532;SDS011;27262;-35.248;149.138;2023-02-28T16:33:34;3.25;;;2.95;;
41532;SDS011;27262;-35.248;149.138;2023-02-28T16:36:05;3.58;;;2.65;;
41532;SDS011;27262;-35.248;149.138;2023-02-28T16:38:38;3.22;;;2.67;;
41532;SDS011;27262;-35.248;149.138;2023-02-28T16:41:11;2.95;;;2.75;;
41532;SDS011;27262;-35.248;149.138;2023-02-28T16:43:48;4.32;;;2.88;;
41532;SDS011;27262;-35.248;149.138;2023-02-28T16:46:20;3.78;;;3.03;;
41532;SDS011;27262;-35.248;149.138;2023-02-28T16:48:50;3.30;;;2.55;;
41532;SDS011;27262;-35.248;149.138;2023-02-28T16:51:21;3.83;;;2.88;;
41532;SDS011;27262;-35.248;149.138;2023-02-28T16:53:51;3.08;;;2.80;;
41532;SDS011;27262;-35.248;149.138;2023-02-28T16:56:22;3.22;;;2.45;;
41532;SDS011;27262;-35.248;149.138;2023-02-28T16:58:54;3.40;;;2.95;;
41532;SDS011;27262;-35.248;149.138;2023-02-28T17:01:28;3.65;;;2.80;;
41532;SDS011;27262;-35.248;149.138;2023-02-28T17:04:00;3.28;;;2.92;;
41532;SDS011;27262;-35.248;149.138;2023-02-28T17:06:30;2.67;;;2.47;;
41532;SDS011;27262;-35.248;149.138;2023-02-28T17:09:01;3.20;;;2.72;;
41532;SDS011;27262;-35.248;149.138;2023-02-28T17:11:32;3.03;;;2.72;;
41532;SDS011;27262;-35.248;149.138;2023-02-28T17:14:02;3.45;;;2.88;;
41532;SDS011;27262;-35.248;149.138;2023-02-28T17:16:33;3.35;;;3.05;;
41532;SDS011;27262;-35.248;149.138;2023-02-28T17:19:13;3.47;;;2.60;;
41532;SDS011;27262;-35.248;149.138;2023-02-28T17:21:45;3.08;;;2.80;;
41532;SDS011;27262;-35.248;149.138;2023-02-28T17:24:15;3.83;;;2.67;;
41532;SDS011;27262;-35.248;149.138;2023-02-28T17:26:57;3.20;;;2.90;;
41532;SDS011;27262;-35.248;149.138;2023-02-28T17:29:28;3.05;;;2.70;;
41532;SDS011;27262;-35.248;149.138;2023-02-28T17:31:58;3.13;;;2.67;;
41532;SDS011;27262;-35.248;149.138;2023-02-28T17:34:43;3.55;;;2.70;;